Stations météo

réclame
Mon MeteoGroup
Sylarna, Suède (2209): Température de l'air & dewpoint: 19.05.2018 12:00:00 - 25.05.2018 12:00:00 (CEST)Sylarna, Suède (2209): Vitesse du vent & gusts: 19.05.2018 12:00:00 - 25.05.2018 12:00:00 (CEST)Sylarna, Suède (2209): Direction du vent: 19.05.2018 12:00:00 - 25.05.2018 12:00:00 (CEST)
Date & Time tt [°C] td [°C] ff [km/h] ff [knt] fx [km/h] fx [knt] dd
25.05.2018 12:00:00 15,1 3,6 18 10 33 18 NNW
25.05.2018 11:00:00 16,4 0,5 16 8 24 13 N
25.05.2018 10:00:00 15,7 -1,0 8 5 13 7 SW
25.05.2018 09:00:00 14,8 -0,1 7 4 12 6 N
25.05.2018 08:00:00 14,7 -3,2 3 2 13 7 SW
25.05.2018 07:00:00 12,2 -4,4 10 5 14 8 SSW
25.05.2018 06:00:00 8,6 -3,0 7 4 14 8 ESE
25.05.2018 05:00:00 9,3 -2,6 5 3 16 9 S
25.05.2018 04:00:00 10,9 -2,5 7 4 16 8 SE
25.05.2018 03:00:00 7,6 -1,9 7 4 18 10 S
25.05.2018 02:00:00 8,6 -1,5 6 3 32 18 S
25.05.2018 01:00:00 9,7 -1,4 6 3 16 9 S
25.05.2018 00:00:00 9,2 -1,2 8 4 18 10 S
24.05.2018 23:00:00 8,7 -1,1 8 4 17 9 S
24.05.2018 22:00:00 11,1 -0,7 13 7 17 9 SSW
24.05.2018 21:00:00 13,7 0,0 3 1 16 9 SW
24.05.2018 20:00:00 14,7 0,2 15 8 18 10 NW
24.05.2018 19:00:00 17,4 1,4 11 6 19 11 N
24.05.2018 18:00:00 17,6 1,1 16 9 27 15 N
24.05.2018 17:00:00 19,5 -0,5 12 6 22 12 NW
24.05.2018 16:00:00 19,7 -0,9 4 2 29 16 WNW
24.05.2018 15:00:00 18,9 -2,1 10 5 22 12 S
24.05.2018 14:00:00 17,9 0,5 9 5 31 17 WSW
24.05.2018 13:00:00 17,1 1,1 11 6 29 16 WSW
24.05.2018 12:00:00 16,4 0,5 14 8 30 16 S
24.05.2018 11:00:00 15,6 0,2 16 9 27 15 S
24.05.2018 10:00:00 14,9 -0,8 15 8 29 15 SSW
24.05.2018 09:00:00 13,7 -1,1 15 8 29 16 S
24.05.2018 08:00:00 12,9 -1,1 14 8 23 12 S
24.05.2018 07:00:00 11,7 -2,2 16 9 27 15 S
24.05.2018 06:00:00 10,3 -1,4 16 9 29 16 S
24.05.2018 05:00:00 9,1 -1,3 24 13 30 16 SSE
24.05.2018 04:00:00 7,6 -1,4 24 13 27 15 SE
24.05.2018 03:00:00 9,5 -1,6 19 10 23 12 S
24.05.2018 02:00:00 6,5 -2,1 11 6 24 13 SSW
24.05.2018 01:00:00 7,0 -2,2 23 12 27 15 SE
24.05.2018 00:00:00 6,9 -2,5 7 4 16 9 S
23.05.2018 23:00:00 7,0 -2,7 9 5 13 7 S
23.05.2018 22:00:00 8,7 -1,7 1 1 15 8 S
23.05.2018 21:00:00 10,6 -1,5 13 7 16 9 NW
23.05.2018 20:00:00 12,2 -2,1 11 6 23 12 WNW
23.05.2018 19:00:00 12,6 -1,4 14 8 23 12 W
23.05.2018 18:00:00 12,2 -0,7 13 7 22 12 NNW
23.05.2018 17:00:00 13,1 -0,5 9 5 21 11 WNW
23.05.2018 16:00:00 11,6 -0,6 10 5 18 10 S
23.05.2018 15:00:00 11,1 -1,0 10 5 23 13 SSW
23.05.2018 14:00:00 10,6 -1,2 13 7 19 10 SSW
23.05.2018 13:00:00 9,2 -3,7 7 4 15 8 NNW
23.05.2018 12:00:00 8,9 -3,0 9 5 19 10 SSW
23.05.2018 11:00:00 7,1 -3,7 10 5 20 11 S
23.05.2018 10:00:00 6,1 -5,2 12 7 20 11 SE
23.05.2018 09:00:00 5,6 -8,0 5 3 11 6 SSW
23.05.2018 08:00:00 4,7 -6,2 10 6 15 8 SSE
23.05.2018 07:00:00 2,3 0,4 4 2 11 6 N
23.05.2018 06:00:00 2,8 -2,5 3 2 9 5 S
23.05.2018 05:00:00 1,1 -0,8 3 2 7 4 S
23.05.2018 04:00:00 0,7 -1,2 5 3 7 4 N
23.05.2018 03:00:00 1,2 -0,7 5 3 16 9 NNW
23.05.2018 02:00:00 1,8 -0,1 13 7 18 10 N
23.05.2018 01:00:00 2,2 0,3 11 6 19 10 NNW
23.05.2018 00:00:00 2,6 0,8 16 8 22 12 NNW
22.05.2018 23:00:00 2,9 1,3 14 7 22 12 NNW
22.05.2018 22:00:00 3,2 1,7 19 10 24 13 NNW
22.05.2018 21:00:00 3,9 2,9 17 9 24 13 NNW
22.05.2018 20:00:00 4,4 4,0 16 9 23 13 NNW
22.05.2018 19:00:00 4,8 4,2 18 10 29 16 NNW
22.05.2018 18:00:00 5,2 4,5 21 11 32 17 NNW
22.05.2018 17:00:00 5,4 4,8 24 13 38 21 NNW
22.05.2018 16:00:00 8,0 3,3 29 16 38 20 NNW
22.05.2018 15:00:00 9,2 3,0 28 15 38 21 NNW
22.05.2018 14:00:00 11,5 3,0 23 12 35 19 NNW
22.05.2018 13:00:00 11,6 2,3 24 13 35 19 NNW
22.05.2018 12:00:00 11,7 2,4 19 10 36 19 NNW
22.05.2018 11:00:00 11,4 3,2 22 12 37 20 NNW
22.05.2018 10:00:00 12,3 2,2 24 13 35 19 NNW
22.05.2018 09:00:00 12,7 -0,9 16 9 23 12 N
22.05.2018 08:00:00 12,2 -1,0 13 7 20 11 NNW
22.05.2018 07:00:00 11,8 -0,4 2 1 15 8 N
22.05.2018 06:00:00 8,7 -1,1 6 4 11 6 NNE
22.05.2018 05:00:00 8,4 -1,7 5 3 22 12 E
22.05.2018 04:00:00 9,3 -1,4 18 10 24 13 S
22.05.2018 03:00:00 8,7 -3,8 5 3 19 10 SSW
22.05.2018 02:00:00 10,5 -4,0 10 6 17 9 SSW
22.05.2018 01:00:00 9,3 -3,6 10 5 16 8 SW
22.05.2018 00:00:00 9,3 -3,6 10 5 17 9 SSW
21.05.2018 23:00:00 10,7 -3,7 10 5 16 9 S
21.05.2018 22:00:00 11,6 -2,2 13 7 16 9 SSW
21.05.2018 21:00:00 12,5 0,3 3 1 11 6 S
21.05.2018 20:00:00 13,6 -2,4 10 5 17 9 SW
21.05.2018 19:00:00 17,0 -4,9 9 5 26 14 SSW
21.05.2018 18:00:00 17,0 -3,2 13 7 27 14 SSW
21.05.2018 17:00:00 17,1 -3,1 12 6 23 12 S
21.05.2018 16:00:00 16,9 -3,8 9 5 24 13 S
21.05.2018 15:00:00 16,4 -3,2 14 8 27 15 S
21.05.2018 14:00:00 15,8 -3,2 16 8 29 16 SSW
21.05.2018 13:00:00 15,3 -4,1 16 9 26 14 SSW
21.05.2018 12:00:00 15,8 -2,7 12 6 23 12 SSE
21.05.2018 11:00:00 14,4 -3,9 9 5 18 10 E
21.05.2018 10:00:00 13,3 -3,5 11 6 21 12 NNW
21.05.2018 09:00:00 13,1 -4,5 8 4 33 18 NE
21.05.2018 08:00:00 11,4 -4,3 19 10 35 19 S
21.05.2018 07:00:00 10,1 -4,3 18 10 28 15 SSW
21.05.2018 06:00:00 10,5 -5,5 20 11 34 18 S
21.05.2018 05:00:00 10,8 -5,2 20 11 34 19 S
21.05.2018 04:00:00 10,4 -5,2 22 12 35 19 SSE
21.05.2018 03:00:00 10,5 -5,5 10 5 48 26 SSE
21.05.2018 02:00:00 10,7 -5,8 26 14 41 22 SW
21.05.2018 01:00:00 10,2 -5,4 23 12 50 27 SSW
21.05.2018 00:00:00 10,0 -4,8 22 12 42 23 SSW
20.05.2018 23:00:00 9,8 -5,3 21 11 41 22 SSW
20.05.2018 22:00:00 11,2 -6,2 26 14 44 24 SSW
20.05.2018 21:00:00 11,6 -5,4 19 11 37 20 SW
20.05.2018 20:00:00 13,3 -5,3 22 12 40 21 SW
20.05.2018 19:00:00 15,1 -5,9 18 10 40 22 SSW
20.05.2018 18:00:00 15,4 -6,2 10 6 39 21 SSW
20.05.2018 17:00:00 16,7 -6,4 21 11 51 28 SW
20.05.2018 16:00:00 16,2 -6,8 24 13 53 28 SW
20.05.2018 15:00:00 16,0 -5,7 29 16 56 30 SW
20.05.2018 14:00:00 14,7 -6,2 22 12 51 28 SSW
20.05.2018 13:00:00 14,1 -6,7 37 20 52 28 SW
20.05.2018 12:00:00 13,7 -6,0 26 14 53 29 SSW
20.05.2018 11:00:00 12,9 -6,2 32 18 51 28 SSW
20.05.2018 10:00:00 11,4 -5,1 27 14 40 22 S
20.05.2018 09:00:00 10,4 -3,7 25 14 44 24 S
20.05.2018 08:00:00 10,3 -3,4 26 14 40 22 S
20.05.2018 07:00:00 9,4 -4,2 21 11 34 18 SSE
20.05.2018 06:00:00 6,7 -2,5 29 16 48 26 SSE
20.05.2018 05:00:00 6,5 -2,7 33 18 45 24 SSE
20.05.2018 04:00:00 4,2 -2,4 29 16 40 22 SSE
20.05.2018 03:00:00 6,6 -2,3 25 13 34 18 S
20.05.2018 02:00:00 3,9 -2,9 18 10 22 12 SSE
20.05.2018 01:00:00 4,6 -2,3 9 5 16 9 S
20.05.2018 00:00:00 4,1 -2,3 6 3 16 9 S
19.05.2018 23:00:00 4,9 -1,8 8 4 13 7 SSE
19.05.2018 22:00:00 4,7 -1,7 9 5 11 6 SSW
19.05.2018 21:00:00 7,4 -0,8 9 5 16 9 NNW
19.05.2018 20:00:00 8,8 -1,1 15 8 24 13 NNW
19.05.2018 19:00:00 9,8 -1,0 19 10 27 15 NNW
19.05.2018 18:00:00 10,6 -1,8 18 10 31 17 NNW
19.05.2018 17:00:00 11,4 -2,1 19 10 28 15 NNW
19.05.2018 16:00:00 12,1 -3,3 8 4 26 14 NW
19.05.2018 15:00:00 11,6 -3,7 6 3 26 14 W
19.05.2018 14:00:00 11,3 -3,2 10 5 31 17 NW
19.05.2018 13:00:00 9,8 -3,9 10 5 28 15 SW
19.05.2018 12:00:00 9,0 -3,6 16 8 27 15 WNW

tt = Température de l'air
td = dewpoint
ff = Vitesse du vent
fx = gusts
dd = Direction du vent

stations d'obs. à proximité